sensor_id;sensor_type;location;lat;lon;timestamp;temperature;humidity
49579;DHT22;35483;50.828;3.228;2023-03-01T00:01:48;1.50;81.70
49579;DHT22;35483;50.828;3.228;2023-03-01T00:04:14;1.50;82.50
49579;DHT22;35483;50.828;3.228;2023-03-01T00:06:41;1.50;81.90
49579;DHT22;35483;50.828;3.228;2023-03-01T00:09:08;1.50;82.00
49579;DHT22;35483;50.828;3.228;2023-03-01T00:11:34;1.50;82.00
49579;DHT22;35483;50.828;3.228;2023-03-01T00:14:01;1.40;82.00
49579;DHT22;35483;50.828;3.228;2023-03-01T00:16:36;1.50;81.90
49579;DHT22;35483;50.828;3.228;2023-03-01T00:19:04;1.50;82.10
49579;DHT22;35483;50.828;3.228;2023-03-01T00:21:29;1.50;82.10
49579;DHT22;35483;50.828;3.228;2023-03-01T00:23:56;1.40;82.20
49579;DHT22;35483;50.828;3.228;2023-03-01T00:26:23;1.40;82.30
49579;DHT22;35483;50.828;3.228;2023-03-01T00:28:49;1.40;82.20
49579;DHT22;35483;50.828;3.228;2023-03-01T00:31:21;1.50;82.20
49579;DHT22;35483;50.828;3.228;2023-03-01T00:33:47;1.50;82.20
49579;DHT22;35483;50.828;3.228;2023-03-01T00:36:15;1.50;82.60
49579;DHT22;35483;50.828;3.228;2023-03-01T00:38:45;1.40;82.30
49579;DHT22;35483;50.828;3.228;2023-03-01T00:41:16;1.40;82.40
49579;DHT22;35483;50.828;3.228;2023-03-01T00:43:42;1.40;82.50
49579;DHT22;35483;50.828;3.228;2023-03-01T00:46:11;1.40;82.70
49579;DHT22;35483;50.828;3.228;2023-03-01T00:48:37;1.40;83.00
49579;DHT22;35483;50.828;3.228;2023-03-01T00:51:14;1.40;82.90
49579;DHT22;35483;50.828;3.228;2023-03-01T00:53:41;1.40;83.00
49579;DHT22;35483;50.828;3.228;2023-03-01T00:56:08;1.30;82.90
49579;DHT22;35483;50.828;3.228;2023-03-01T00:58:35;1.30;83.40
49579;DHT22;35483;50.828;3.228;2023-03-01T01:01:00;1.30;83.30
49579;DHT22;35483;50.828;3.228;2023-03-01T01:03:26;1.30;83.40
49579;DHT22;35483;50.828;3.228;2023-03-01T01:05:53;1.30;83.50
49579;DHT22;35483;50.828;3.228;2023-03-01T01:08:19;1.30;83.90
49579;DHT22;35483;50.828;3.228;2023-03-01T01:10:46;1.30;83.50
49579;DHT22;35483;50.828;3.228;2023-03-01T01:13:12;1.30;83.90
49579;DHT22;35483;50.828;3.228;2023-03-01T01:15:38;1.30;83.70
49579;DHT22;35483;50.828;3.228;2023-03-01T01:18:04;1.20;83.60
49579;DHT22;35483;50.828;3.228;2023-03-01T01:20:30;1.20;83.80
49579;DHT22;35483;50.828;3.228;2023-03-01T01:22:56;1.20;84.00
49579;DHT22;35483;50.828;3.228;2023-03-01T01:25:22;1.20;84.00
49579;DHT22;35483;50.828;3.228;2023-03-01T01:27:50;1.20;83.80
49579;DHT22;35483;50.828;3.228;2023-03-01T01:30:16;1.20;83.70
49579;DHT22;35483;50.828;3.228;2023-03-01T01:32:43;1.20;83.70
49579;DHT22;35483;50.828;3.228;2023-03-01T01:35:09;1.20;84.30
49579;DHT22;35483;50.828;3.228;2023-03-01T01:37:35;1.20;84.10
49579;DHT22;35483;50.828;3.228;2023-03-01T01:40:02;1.20;84.10
49579;DHT22;35483;50.828;3.228;2023-03-01T01:42:31;1.20;84.60
49579;DHT22;35483;50.828;3.228;2023-03-01T01:45:27;1.20;84.40
49579;DHT22;35483;50.828;3.228;2023-03-01T01:47:55;1.20;85.30
49579;DHT22;35483;50.828;3.228;2023-03-01T01:50:23;1.20;85.70
49579;DHT22;35483;50.828;3.228;2023-03-01T01:52:50;1.10;85.30
49579;DHT22;35483;50.828;3.228;2023-03-01T01:55:24;1.10;85.30
49579;DHT22;35483;50.828;3.228;2023-03-01T01:57:56;1.20;84.90
49579;DHT22;35483;50.828;3.228;2023-03-01T02:00:25;1.20;84.20
49579;DHT22;35483;50.828;3.228;2023-03-01T02:03:03;1.20;85.50
49579;DHT22;35483;50.828;3.228;2023-03-01T02:08:41;1.10;86.20
49579;DHT22;35483;50.828;3.228;2023-03-01T02:11:09;1.10;85.80
49579;DHT22;35483;50.828;3.228;2023-03-01T02:13:36;1.10;85.00
49579;DHT22;35483;50.828;3.228;2023-03-01T02:16:04;1.20;85.30
49579;DHT22;35483;50.828;3.228;2023-03-01T02:18:30;1.10;86.50
49579;DHT22;35483;50.828;3.228;2023-03-01T02:21:08;1.10;85.60
49579;DHT22;35483;50.828;3.228;2023-03-01T02:23:37;1.10;86.40
49579;DHT22;35483;50.828;3.228;2023-03-01T02:26:34;1.10;86.20
49579;DHT22;35483;50.828;3.228;2023-03-01T02:29:04;1.10;87.30
49579;DHT22;35483;50.828;3.228;2023-03-01T02:31:31;1.10;86.60
49579;DHT22;35483;50.828;3.228;2023-03-01T02:34:18;1.10;86.40
49579;DHT22;35483;50.828;3.228;2023-03-01T02:36:51;1.00;86.50
49579;DHT22;35483;50.828;3.228;2023-03-01T02:39:44;1.10;86.80
49579;DHT22;35483;50.828;3.228;2023-03-01T02:42:12;1.00;87.00
49579;DHT22;35483;50.828;3.228;2023-03-01T02:44:38;1.10;87.00
49579;DHT22;35483;50.828;3.228;2023-03-01T02:47:04;1.00;86.50
49579;DHT22;35483;50.828;3.228;2023-03-01T02:49:34;1.00;87.20
49579;DHT22;35483;50.828;3.228;2023-03-01T02:52:30;1.00;87.30
49579;DHT22;35483;50.828;3.228;2023-03-01T02:55:11;1.10;88.50
49579;DHT22;35483;50.828;3.228;2023-03-01T02:57:41;1.00;89.80
49579;DHT22;35483;50.828;3.228;2023-03-01T03:00:10;1.00;87.50
49579;DHT22;35483;50.828;3.228;2023-03-01T03:02:47;1.00;87.40
49579;DHT22;35483;50.828;3.228;2023-03-01T03:05:19;1.00;87.20
49579;DHT22;35483;50.828;3.228;2023-03-01T03:07:47;1.00;87.20
49579;DHT22;35483;50.828;3.228;2023-03-01T03:10:19;1.10;87.20
49579;DHT22;35483;50.828;3.228;2023-03-01T03:12:56;1.00;88.40
49579;DHT22;35483;50.828;3.228;2023-03-01T03:15:23;1.00;87.90
49579;DHT22;35483;50.828;3.228;2023-03-01T03:17:50;1.00;89.70
49579;DHT22;35483;50.828;3.228;2023-03-01T03:20:19;1.00;88.70
49579;DHT22;35483;50.828;3.228;2023-03-01T03:22:50;1.00;88.80
49579;DHT22;35483;50.828;3.228;2023-03-01T03:25:18;0.90;90.00
49579;DHT22;35483;50.828;3.228;2023-03-01T03:27:45;0.90;88.50
49579;DHT22;35483;50.828;3.228;2023-03-01T03:30:15;0.90;89.20
49579;DHT22;35483;50.828;3.228;2023-03-01T03:32:43;0.90;89.10
49579;DHT22;35483;50.828;3.228;2023-03-01T03:35:24;0.90;90.40
49579;DHT22;35483;50.828;3.228;2023-03-01T03:37:50;0.90;91.10
49579;DHT22;35483;50.828;3.228;2023-03-01T03:43:19;0.90;91.40
49579;DHT22;35483;50.828;3.228;2023-03-01T03:45:46;0.90;90.40
49579;DHT22;35483;50.828;3.228;2023-03-01T03:48:13;0.90;90.20
49579;DHT22;35483;50.828;3.228;2023-03-01T03:50:40;0.90;89.10
49579;DHT22;35483;50.828;3.228;2023-03-01T03:53:11;0.90;90.70
49579;DHT22;35483;50.828;3.228;2023-03-01T03:55:37;0.90;90.70
49579;DHT22;35483;50.828;3.228;2023-03-01T03:58:06;0.90;90.90
49579;DHT22;35483;50.828;3.228;2023-03-01T04:00:34;0.90;90.10
49579;DHT22;35483;50.828;3.228;2023-03-01T04:03:01;0.90;90.00
49579;DHT22;35483;50.828;3.228;2023-03-01T04:05:27;0.90;90.10
49579;DHT22;35483;50.828;3.228;2023-03-01T04:07:53;0.90;90.60
49579;DHT22;35483;50.828;3.228;2023-03-01T04:10:30;0.90;90.60
49579;DHT22;35483;50.828;3.228;2023-03-01T04:12:56;0.90;90.50
49579;DHT22;35483;50.828;3.228;2023-03-01T04:15:23;0.90;90.00
49579;DHT22;35483;50.828;3.228;2023-03-01T04:17:50;0.80;90.50
49579;DHT22;35483;50.828;3.228;2023-03-01T04:20:19;0.80;90.40
49579;DHT22;35483;50.828;3.228;2023-03-01T04:22:56;0.80;91.10
49579;DHT22;35483;50.828;3.228;2023-03-01T04:25:23;0.80;90.90
49579;DHT22;35483;50.828;3.228;2023-03-01T04:27:49;0.70;90.70
49579;DHT22;35483;50.828;3.228;2023-03-01T04:30:15;0.70;90.90
49579;DHT22;35483;50.828;3.228;2023-03-01T04:32:41;0.70;90.90
49579;DHT22;35483;50.828;3.228;2023-03-01T04:35:07;0.70;90.50
49579;DHT22;35483;50.828;3.228;2023-03-01T04:37:33;0.70;90.80
49579;DHT22;35483;50.828;3.228;2023-03-01T04:40:00;0.70;90.80
49579;DHT22;35483;50.828;3.228;2023-03-01T04:42:26;0.70;91.00
49579;DHT22;35483;50.828;3.228;2023-03-01T04:44:52;0.70;90.70
49579;DHT22;35483;50.828;3.228;2023-03-01T04:47:18;0.70;90.40
49579;DHT22;35483;50.828;3.228;2023-03-01T04:49:43;0.70;91.20
49579;DHT22;35483;50.828;3.228;2023-03-01T04:52:09;0.70;90.40
49579;DHT22;35483;50.828;3.228;2023-03-01T04:54:35;0.70;91.00
49579;DHT22;35483;50.828;3.228;2023-03-01T04:57:02;0.70;90.70
49579;DHT22;35483;50.828;3.228;2023-03-01T04:59:28;0.70;90.40
49579;DHT22;35483;50.828;3.228;2023-03-01T05:01:55;0.70;90.50
49579;DHT22;35483;50.828;3.228;2023-03-01T05:04:22;0.70;90.80
49579;DHT22;35483;50.828;3.228;2023-03-01T05:06:48;0.70;91.40
49579;DHT22;35483;50.828;3.228;2023-03-01T05:09:14;0.60;90.60
49579;DHT22;35483;50.828;3.228;2023-03-01T05:11:40;0.60;90.50
49579;DHT22;35483;50.828;3.228;2023-03-01T05:14:07;0.60;90.40
49579;DHT22;35483;50.828;3.228;2023-03-01T05:16:33;0.60;90.60
49579;DHT22;35483;50.828;3.228;2023-03-01T05:19:00;0.60;90.70
49579;DHT22;35483;50.828;3.228;2023-03-01T05:21:26;0.60;90.90
49579;DHT22;35483;50.828;3.228;2023-03-01T05:23:52;0.60;90.60
49579;DHT22;35483;50.828;3.228;2023-03-01T05:26:19;0.50;90.90
49579;DHT22;35483;50.828;3.228;2023-03-01T05:28:47;0.50;91.00
49579;DHT22;35483;50.828;3.228;2023-03-01T05:31:15;0.50;91.30
49579;DHT22;35483;50.828;3.228;2023-03-01T05:33:41;0.50;90.60
49579;DHT22;35483;50.828;3.228;2023-03-01T05:36:09;0.50;91.10
49579;DHT22;35483;50.828;3.228;2023-03-01T05:38:35;0.50;90.60
49579;DHT22;35483;50.828;3.228;2023-03-01T05:44:13;0.50;91.30
49579;DHT22;35483;50.828;3.228;2023-03-01T05:46:39;0.50;91.00
49579;DHT22;35483;50.828;3.228;2023-03-01T05:49:04;0.50;90.70
49579;DHT22;35483;50.828;3.228;2023-03-01T05:51:30;0.50;91.30
49579;DHT22;35483;50.828;3.228;2023-03-01T05:53:56;0.50;91.30
49579;DHT22;35483;50.828;3.228;2023-03-01T05:56:22;0.50;90.60
49579;DHT22;35483;50.828;3.228;2023-03-01T05:58:50;0.50;90.90
49579;DHT22;35483;50.828;3.228;2023-03-01T06:01:16;0.50;91.00
49579;DHT22;35483;50.828;3.228;2023-03-01T06:03:42;0.50;91.10
49579;DHT22;35483;50.828;3.228;2023-03-01T06:06:08;0.40;91.60
49579;DHT22;35483;50.828;3.228;2023-03-01T06:08:33;0.40;91.50
49579;DHT22;35483;50.828;3.228;2023-03-01T06:10:59;0.40;91.10
49579;DHT22;35483;50.828;3.228;2023-03-01T06:13:25;0.40;91.00
49579;DHT22;35483;50.828;3.228;2023-03-01T06:15:51;0.40;90.90
49579;DHT22;35483;50.828;3.228;2023-03-01T06:18:17;0.40;90.70
49579;DHT22;35483;50.828;3.228;2023-03-01T06:20:42;0.40;91.10
49579;DHT22;35483;50.828;3.228;2023-03-01T06:23:08;0.40;91.00
49579;DHT22;35483;50.828;3.228;2023-03-01T06:25:34;0.40;91.60
49579;DHT22;35483;50.828;3.228;2023-03-01T06:28:00;0.40;91.50
49579;DHT22;35483;50.828;3.228;2023-03-01T06:30:26;0.40;91.60
49579;DHT22;35483;50.828;3.228;2023-03-01T06:32:52;0.40;91.00
49579;DHT22;35483;50.828;3.228;2023-03-01T06:35:19;0.40;90.90
49579;DHT22;35483;50.828;3.228;2023-03-01T06:37:46;0.30;92.00
49579;DHT22;35483;50.828;3.228;2023-03-01T06:40:12;0.30;91.20
49579;DHT22;35483;50.828;3.228;2023-03-01T06:42:41;0.30;91.10
49579;DHT22;35483;50.828;3.228;2023-03-01T06:45:08;0.30;91.10
49579;DHT22;35483;50.828;3.228;2023-03-01T06:47:34;0.30;91.20
49579;DHT22;35483;50.828;3.228;2023-03-01T06:50:00;0.30;91.90
49579;DHT22;35483;50.828;3.228;2023-03-01T06:52:27;0.30;91.00
49579;DHT22;35483;50.828;3.228;2023-03-01T06:54:52;0.40;90.70
49579;DHT22;35483;50.828;3.228;2023-03-01T06:57:18;0.40;90.90
49579;DHT22;35483;50.828;3.228;2023-03-01T06:59:44;0.40;91.00
49579;DHT22;35483;50.828;3.228;2023-03-01T07:02:13;0.40;91.00
49579;DHT22;35483;50.828;3.228;2023-03-01T07:04:40;0.40;91.00
49579;DHT22;35483;50.828;3.228;2023-03-01T07:07:06;0.40;91.60
49579;DHT22;35483;50.828;3.228;2023-03-01T07:09:32;0.50;91.00
49579;DHT22;35483;50.828;3.228;2023-03-01T07:11:58;0.50;91.10
49579;DHT22;35483;50.828;3.228;2023-03-01T07:14:26;0.50;90.90
49579;DHT22;35483;50.828;3.228;2023-03-01T07:16:52;0.50;91.70
49579;DHT22;35483;50.828;3.228;2023-03-01T07:19:19;0.60;90.60
49579;DHT22;35483;50.828;3.228;2023-03-01T07:21:45;0.60;91.40
49579;DHT22;35483;50.828;3.228;2023-03-01T07:24:11;0.70;90.80
49579;DHT22;35483;50.828;3.228;2023-03-01T07:26:37;0.70;91.20
49579;DHT22;35483;50.828;3.228;2023-03-01T07:29:04;0.70;91.70
49579;DHT22;35483;50.828;3.228;2023-03-01T07:31:31;0.80;90.80
49579;DHT22;35483;50.828;3.228;2023-03-01T07:33:56;0.80;90.90
49579;DHT22;35483;50.828;3.228;2023-03-01T07:36:23;0.90;91.60
49579;DHT22;35483;50.828;3.228;2023-03-01T07:38:49;0.90;91.10
49579;DHT22;35483;50.828;3.228;2023-03-01T07:41:15;1.00;91.50
49579;DHT22;35483;50.828;3.228;2023-03-01T07:43:41;1.00;91.10
49579;DHT22;35483;50.828;3.228;2023-03-01T07:46:06;1.10;90.60
49579;DHT22;35483;50.828;3.228;2023-03-01T07:48:33;1.20;90.50
49579;DHT22;35483;50.828;3.228;2023-03-01T07:51:04;1.20;90.50
49579;DHT22;35483;50.828;3.228;2023-03-01T07:53:31;1.20;90.80
49579;DHT22;35483;50.828;3.228;2023-03-01T07:58:27;1.40;90.80
49579;DHT22;35483;50.828;3.228;2023-03-01T08:00:53;1.40;91.20
49579;DHT22;35483;50.828;3.228;2023-03-01T08:03:18;1.50;90.30
49579;DHT22;35483;50.828;3.228;2023-03-01T08:05:45;1.50;90.70
49579;DHT22;35483;50.828;3.228;2023-03-01T08:08:11;1.50;90.50
49579;DHT22;35483;50.828;3.228;2023-03-01T08:10:37;1.60;90.70
49579;DHT22;35483;50.828;3.228;2023-03-01T08:13:02;1.70;90.60
49579;DHT22;35483;50.828;3.228;2023-03-01T08:15:28;1.70;90.70
49579;DHT22;35483;50.828;3.228;2023-03-01T08:17:54;1.80;90.40
49579;DHT22;35483;50.828;3.228;2023-03-01T08:20:19;1.80;90.70
49579;DHT22;35483;50.828;3.228;2023-03-01T08:22:46;1.90;90.40
49579;DHT22;35483;50.828;3.228;2023-03-01T08:25:11;1.90;90.70
49579;DHT22;35483;50.828;3.228;2023-03-01T08:27:37;2.00;90.30
49579;DHT22;35483;50.828;3.228;2023-03-01T08:30:03;2.10;90.30
49579;DHT22;35483;50.828;3.228;2023-03-01T08:32:29;2.10;90.40
49579;DHT22;35483;50.828;3.228;2023-03-01T08:34:55;2.20;90.10
49579;DHT22;35483;50.828;3.228;2023-03-01T08:37:21;2.30;90.40
49579;DHT22;35483;50.828;3.228;2023-03-01T08:39:46;2.30;90.00
49579;DHT22;35483;50.828;3.228;2023-03-01T08:42:12;2.40;90.10
49579;DHT22;35483;50.828;3.228;2023-03-01T08:44:38;2.40;90.10
49579;DHT22;35483;50.828;3.228;2023-03-01T08:47:04;2.50;90.20
49579;DHT22;35483;50.828;3.228;2023-03-01T08:49:30;2.50;90.20
49579;DHT22;35483;50.828;3.228;2023-03-01T08:51:57;2.60;90.30
49579;DHT22;35483;50.828;3.228;2023-03-01T08:54:23;2.60;90.10
49579;DHT22;35483;50.828;3.228;2023-03-01T08:56:50;2.70;90.00
49579;DHT22;35483;50.828;3.228;2023-03-01T08:59:17;2.80;89.90
49579;DHT22;35483;50.828;3.228;2023-03-01T09:01:42;2.80;89.50
49579;DHT22;35483;50.828;3.228;2023-03-01T09:04:12;2.90;89.40
49579;DHT22;35483;50.828;3.228;2023-03-01T09:06:38;2.90;89.30
49579;DHT22;35483;50.828;3.228;2023-03-01T09:09:04;3.00;89.20
49579;DHT22;35483;50.828;3.228;2023-03-01T09:11:31;3.00;89.10
49579;DHT22;35483;50.828;3.228;2023-03-01T09:13:56;3.10;89.00
49579;DHT22;35483;50.828;3.228;2023-03-01T09:16:22;3.10;89.10
49579;DHT22;35483;50.828;3.228;2023-03-01T09:18:50;3.20;88.80
49579;DHT22;35483;50.828;3.228;2023-03-01T09:21:18;3.20;88.80
49579;DHT22;35483;50.828;3.228;2023-03-01T09:23:45;3.30;88.50
49579;DHT22;35483;50.828;3.228;2023-03-01T09:26:20;3.30;88.50
49579;DHT22;35483;50.828;3.228;2023-03-01T09:28:48;3.40;88.40
49579;DHT22;35483;50.828;3.228;2023-03-01T09:31:14;3.40;88.10
49579;DHT22;35483;50.828;3.228;2023-03-01T09:33:42;3.50;87.90
49579;DHT22;35483;50.828;3.228;2023-03-01T09:36:14;3.50;88.00
49579;DHT22;35483;50.828;3.228;2023-03-01T09:38:40;3.60;86.90
49579;DHT22;35483;50.828;3.228;2023-03-01T09:46:37;3.60;87.80
49579;DHT22;35483;50.828;3.228;2023-03-01T09:49:11;3.70;87.40
49579;DHT22;35483;50.828;3.228;2023-03-01T09:51:37;3.70;87.70
49579;DHT22;35483;50.828;3.228;2023-03-01T09:54:04;3.80;87.60
49579;DHT22;35483;50.828;3.228;2023-03-01T09:56:38;3.90;86.90
49579;DHT22;35483;50.828;3.228;2023-03-01T10:04:50;4.00;84.80
49579;DHT22;35483;50.828;3.228;2023-03-01T10:07:42;4.10;86.60
49579;DHT22;35483;50.828;3.228;2023-03-01T10:10:28;4.10;85.80
49579;DHT22;35483;50.828;3.228;2023-03-01T10:12:57;4.20;85.30
49579;DHT22;35483;50.828;3.228;2023-03-01T10:15:36;4.20;86.70
49579;DHT22;35483;50.828;3.228;2023-03-01T10:18:14;4.30;86.00
49579;DHT22;35483;50.828;3.228;2023-03-01T10:20:46;4.30;84.80
49579;DHT22;35483;50.828;3.228;2023-03-01T10:23:14;4.40;84.80
49579;DHT22;35483;50.828;3.228;2023-03-01T10:28:47;4.50;83.90
49579;DHT22;35483;50.828;3.228;2023-03-01T10:31:19;4.50;84.20
49579;DHT22;35483;50.828;3.228;2023-03-01T10:33:45;4.50;83.20
49579;DHT22;35483;50.828;3.228;2023-03-01T10:36:13;4.60;85.00
49579;DHT22;35483;50.828;3.228;2023-03-01T10:38:53;4.60;83.90
49579;DHT22;35483;50.828;3.228;2023-03-01T10:41:21;4.70;83.90
49579;DHT22;35483;50.828;3.228;2023-03-01T10:43:57;4.70;83.40
49579;DHT22;35483;50.828;3.228;2023-03-01T10:46:37;4.80;83.40
49579;DHT22;35483;50.828;3.228;2023-03-01T10:49:19;4.80;83.00
49579;DHT22;35483;50.828;3.228;2023-03-01T10:51:50;4.80;80.70
49579;DHT22;35483;50.828;3.228;2023-03-01T10:56:53;4.90;82.00
49579;DHT22;35483;50.828;3.228;2023-03-01T11:02:16;4.90;81.10
49579;DHT22;35483;50.828;3.228;2023-03-01T11:07:54;5.00;81.60
49579;DHT22;35483;50.828;3.228;2023-03-01T11:10:27;5.10;81.30
49579;DHT22;35483;50.828;3.228;2023-03-01T11:13:05;5.10;82.80
49579;DHT22;35483;50.828;3.228;2023-03-01T11:15:31;5.10;82.20
49579;DHT22;35483;50.828;3.228;2023-03-01T11:17:57;5.10;82.70
49579;DHT22;35483;50.828;3.228;2023-03-01T11:20:33;5.20;81.90
49579;DHT22;35483;50.828;3.228;2023-03-01T11:23:04;5.20;82.50
49579;DHT22;35483;50.828;3.228;2023-03-01T11:25:36;5.30;81.80
49579;DHT22;35483;50.828;3.228;2023-03-01T11:28:05;5.20;82.50
49579;DHT22;35483;50.828;3.228;2023-03-01T11:30:37;5.30;81.60
49579;DHT22;35483;50.828;3.228;2023-03-01T11:33:13;5.30;81.80
49579;DHT22;35483;50.828;3.228;2023-03-01T11:35:54;5.30;81.90
49579;DHT22;35483;50.828;3.228;2023-03-01T11:38:26;5.30;82.20
49579;DHT22;35483;50.828;3.228;2023-03-01T11:40:57;5.40;82.20
49579;DHT22;35483;50.828;3.228;2023-03-01T11:49:10;5.50;82.00
49579;DHT22;35483;50.828;3.228;2023-03-01T11:57:46;5.60;82.10
49579;DHT22;35483;50.828;3.228;2023-03-01T12:06:29;5.60;77.50
49579;DHT22;35483;50.828;3.228;2023-03-01T12:09:23;5.70;81.20
49579;DHT22;35483;50.828;3.228;2023-03-01T12:12:09;5.80;78.10
49579;DHT22;35483;50.828;3.228;2023-03-01T12:19:56;5.90;81.60
49579;DHT22;35483;50.828;3.228;2023-03-01T12:30:48;6.10;80.70
49579;DHT22;35483;50.828;3.228;2023-03-01T12:38:41;6.10;78.50
49579;DHT22;35483;50.828;3.228;2023-03-01T12:42:08;6.20;76.50
49579;DHT22;35483;50.828;3.228;2023-03-01T12:44:20;6.20;81.00
49579;DHT22;35483;50.828;3.228;2023-03-01T12:47:03;6.20;80.30
49579;DHT22;35483;50.828;3.228;2023-03-01T12:49:42;6.30;79.20
49579;DHT22;35483;50.828;3.228;2023-03-01T12:52:56;6.40;80.70
49579;DHT22;35483;50.828;3.228;2023-03-01T12:55:33;6.30;76.20
49579;DHT22;35483;50.828;3.228;2023-03-01T12:58:28;6.30;80.60
49579;DHT22;35483;50.828;3.228;2023-03-01T13:06:29;6.40;80.60
49579;DHT22;35483;50.828;3.228;2023-03-01T13:11:43;6.40;77.80
49579;DHT22;35483;50.828;3.228;2023-03-01T13:16:49;6.50;76.70
49579;DHT22;35483;50.828;3.228;2023-03-01T13:19:23;6.50;79.50
49579;DHT22;35483;50.828;3.228;2023-03-01T13:21:50;6.50;78.10
49579;DHT22;35483;50.828;3.228;2023-03-01T13:29:47;6.70;78.70
49579;DHT22;35483;50.828;3.228;2023-03-01T13:32:26;6.60;79.40
49579;DHT22;35483;50.828;3.228;2023-03-01T13:37:40;6.60;78.70
49579;DHT22;35483;50.828;3.228;2023-03-01T13:42:53;6.60;75.80
49579;DHT22;35483;50.828;3.228;2023-03-01T13:45:45;6.60;78.50
49579;DHT22;35483;50.828;3.228;2023-03-01T13:48:38;6.70;71.60
49579;DHT22;35483;50.828;3.228;2023-03-01T13:51:09;6.70;70.40
49579;DHT22;35483;50.828;3.228;2023-03-01T13:53:40;6.70;79.30
49579;DHT22;35483;50.828;3.228;2023-03-01T13:58:54;6.70;79.90
49579;DHT22;35483;50.828;3.228;2023-03-01T14:01:33;6.80;71.90
49579;DHT22;35483;50.828;3.228;2023-03-01T14:04:00;6.70;76.80
49579;DHT22;35483;50.828;3.228;2023-03-01T14:06:29;6.80;79.90
49579;DHT22;35483;50.828;3.228;2023-03-01T14:09:23;6.90;80.10
49579;DHT22;35483;50.828;3.228;2023-03-01T14:20:20;6.80;74.70
49579;DHT22;35483;50.828;3.228;2023-03-01T14:22:48;6.90;76.70
49579;DHT22;35483;50.828;3.228;2023-03-01T14:30:50;7.00;74.30
49579;DHT22;35483;50.828;3.228;2023-03-01T14:38:35;7.00;78.60
49579;DHT22;35483;50.828;3.228;2023-03-01T14:41:08;7.00;79.30
49579;DHT22;35483;50.828;3.228;2023-03-01T14:43:36;7.00;76.20
49579;DHT22;35483;50.828;3.228;2023-03-01T14:46:03;6.90;79.10
49579;DHT22;35483;50.828;3.228;2023-03-01T14:48:30;6.90;78.70
49579;DHT22;35483;50.828;3.228;2023-03-01T14:50:56;6.90;78.50
49579;DHT22;35483;50.828;3.228;2023-03-01T14:53:27;7.00;79.70
49579;DHT22;35483;50.828;3.228;2023-03-01T14:55:55;6.90;78.80
49579;DHT22;35483;50.828;3.228;2023-03-01T14:58:24;7.00;79.00
49579;DHT22;35483;50.828;3.228;2023-03-01T15:00:53;7.00;78.50
49579;DHT22;35483;50.828;3.228;2023-03-01T15:03:31;7.00;79.10
49579;DHT22;35483;50.828;3.228;2023-03-01T15:06:00;6.90;78.00
49579;DHT22;35483;50.828;3.228;2023-03-01T15:08:27;7.00;79.10
49579;DHT22;35483;50.828;3.228;2023-03-01T15:13:40;7.00;79.10
49579;DHT22;35483;50.828;3.228;2023-03-01T15:16:17;6.90;77.30
49579;DHT22;35483;50.828;3.228;2023-03-01T15:18:51;7.00;75.60
49579;DHT22;35483;50.828;3.228;2023-03-01T15:21:21;6.90;76.40
49579;DHT22;35483;50.828;3.228;2023-03-01T15:23:54;6.90;77.90
49579;DHT22;35483;50.828;3.228;2023-03-01T15:26:24;6.80;77.40
49579;DHT22;35483;50.828;3.228;2023-03-01T15:28:52;6.90;78.50
49579;DHT22;35483;50.828;3.228;2023-03-01T15:31:24;6.90;78.10
49579;DHT22;35483;50.828;3.228;2023-03-01T15:33:50;6.90;78.40
49579;DHT22;35483;50.828;3.228;2023-03-01T15:36:38;6.80;77.40
49579;DHT22;35483;50.828;3.228;2023-03-01T15:39:05;6.80;73.80
49579;DHT22;35483;50.828;3.228;2023-03-01T15:41:57;6.90;79.20
49579;DHT22;35483;50.828;3.228;2023-03-01T15:44:28;6.90;74.70
49579;DHT22;35483;50.828;3.228;2023-03-01T15:46:54;6.80;78.20
49579;DHT22;35483;50.828;3.228;2023-03-01T15:51:59;6.80;73.90
49579;DHT22;35483;50.828;3.228;2023-03-01T15:54:25;6.70;77.70
49579;DHT22;35483;50.828;3.228;2023-03-01T15:56:52;6.70;79.00
49579;DHT22;35483;50.828;3.228;2023-03-01T15:59:18;6.70;75.90
49579;DHT22;35483;50.828;3.228;2023-03-01T16:01:45;6.70;79.60
49579;DHT22;35483;50.828;3.228;2023-03-01T16:04:12;6.70;79.00
49579;DHT22;35483;50.828;3.228;2023-03-01T16:06:42;6.60;79.30
49579;DHT22;35483;50.828;3.228;2023-03-01T16:09:07;6.70;79.70
49579;DHT22;35483;50.828;3.228;2023-03-01T16:11:34;6.70;79.50
49579;DHT22;35483;50.828;3.228;2023-03-01T16:14:02;6.60;78.70
49579;DHT22;35483;50.828;3.228;2023-03-01T16:16:28;6.60;79.50
49579;DHT22;35483;50.828;3.228;2023-03-01T16:18:54;6.60;78.70
49579;DHT22;35483;50.828;3.228;2023-03-01T16:21:23;6.50;78.30
49579;DHT22;35483;50.828;3.228;2023-03-01T16:23:49;6.60;77.40
49579;DHT22;35483;50.828;3.228;2023-03-01T16:26:16;6.60;79.60
49579;DHT22;35483;50.828;3.228;2023-03-01T16:28:42;6.50;78.20
49579;DHT22;35483;50.828;3.228;2023-03-01T16:31:08;6.50;78.80
49579;DHT22;35483;50.828;3.228;2023-03-01T16:33:35;6.50;79.00
49579;DHT22;35483;50.828;3.228;2023-03-01T16:36:11;6.50;78.90
49579;DHT22;35483;50.828;3.228;2023-03-01T16:38:38;6.50;76.80
49579;DHT22;35483;50.828;3.228;2023-03-01T16:41:04;6.40;79.30
49579;DHT22;35483;50.828;3.228;2023-03-01T16:43:30;6.40;79.50
49579;DHT22;35483;50.828;3.228;2023-03-01T16:45:56;6.30;79.30
49579;DHT22;35483;50.828;3.228;2023-03-01T16:48:22;6.30;79.40
49579;DHT22;35483;50.828;3.228;2023-03-01T16:51:00;6.30;79.50
49579;DHT22;35483;50.828;3.228;2023-03-01T16:53:28;6.30;79.20
49579;DHT22;35483;50.828;3.228;2023-03-01T16:55:55;6.20;79.90
49579;DHT22;35483;50.828;3.228;2023-03-01T16:58:21;6.20;80.00
49579;DHT22;35483;50.828;3.228;2023-03-01T17:00:51;6.10;80.20
49579;DHT22;35483;50.828;3.228;2023-03-01T17:03:17;6.10;80.40
49579;DHT22;35483;50.828;3.228;2023-03-01T17:05:42;6.10;80.20
49579;DHT22;35483;50.828;3.228;2023-03-01T17:08:08;6.00;80.30
49579;DHT22;35483;50.828;3.228;2023-03-01T17:10:34;6.00;80.40
49579;DHT22;35483;50.828;3.228;2023-03-01T17:13:00;5.90;80.60
49579;DHT22;35483;50.828;3.228;2023-03-01T17:15:25;5.80;80.70
49579;DHT22;35483;50.828;3.228;2023-03-01T17:17:51;5.70;80.10
49579;DHT22;35483;50.828;3.228;2023-03-01T17:20:17;5.80;80.80
49579;DHT22;35483;50.828;3.228;2023-03-01T17:22:43;5.70;80.70
49579;DHT22;35483;50.828;3.228;2023-03-01T17:25:10;5.60;80.80
49579;DHT22;35483;50.828;3.228;2023-03-01T17:27:37;5.60;80.50
49579;DHT22;35483;50.828;3.228;2023-03-01T17:30:04;5.50;80.70
49579;DHT22;35483;50.828;3.228;2023-03-01T17:32:30;5.50;80.90
49579;DHT22;35483;50.828;3.228;2023-03-01T17:34:56;5.40;80.50
49579;DHT22;35483;50.828;3.228;2023-03-01T17:37:22;5.40;80.40
49579;DHT22;35483;50.828;3.228;2023-03-01T17:39:47;5.40;80.70
49579;DHT22;35483;50.828;3.228;2023-03-01T17:42:13;5.30;80.70
49579;DHT22;35483;50.828;3.228;2023-03-01T17:44:39;5.30;80.90
49579;DHT22;35483;50.828;3.228;2023-03-01T17:47:05;5.20;81.00
49579;DHT22;35483;50.828;3.228;2023-03-01T17:49:31;5.20;81.10
49579;DHT22;35483;50.828;3.228;2023-03-01T17:51:57;5.20;81.40
49579;DHT22;35483;50.828;3.228;2023-03-01T17:54:23;5.10;81.40
49579;DHT22;35483;50.828;3.228;2023-03-01T17:56:50;5.00;81.30
49579;DHT22;35483;50.828;3.228;2023-03-01T17:59:16;5.00;81.50